createdAt,value
2023-03-17T00:01:56.969Z,12.05
2023-03-17T00:04:26.668Z,10.65
2023-03-17T00:06:55.131Z,11.00
2023-03-17T00:09:23.172Z,11.90
2023-03-17T00:11:51.062Z,12.18
2023-03-17T00:14:19.849Z,12.00
2023-03-17T00:16:52.733Z,12.32
2023-03-17T00:19:28.337Z,12.15
2023-03-17T00:21:56.216Z,11.00
2023-03-17T00:24:24.261Z,11.65
2023-03-17T00:26:52.161Z,12.30
2023-03-17T00:29:20.451Z,13.45
2023-03-17T00:31:48.156Z,12.55
2023-03-17T00:34:18.566Z,10.55
2023-03-17T00:36:50.130Z,12.98
2023-03-17T00:39:18.753Z,12.80
2023-03-17T00:44:14.539Z,12.38
2023-03-17T00:46:42.582Z,12.48
2023-03-17T00:51:46.348Z,13.50
2023-03-17T00:54:16.813Z,13.18
2023-03-17T00:56:45.707Z,13.27
2023-03-17T00:59:20.609Z,13.75
2023-03-17T01:01:49.153Z,12.98
2023-03-17T01:04:17.034Z,11.30
2023-03-17T01:06:44.660Z,12.65
2023-03-17T01:09:18.626Z,12.68
2023-03-17T01:11:47.041Z,13.25
2023-03-17T01:14:16.001Z,13.50
2023-03-17T01:16:44.835Z,13.85
2023-03-17T01:19:13.576Z,14.07
2023-03-17T01:21:42.538Z,14.18
2023-03-17T01:24:10.194Z,14.20
2023-03-17T01:26:39.083Z,13.75
2023-03-17T01:29:07.980Z,13.88
2023-03-17T01:31:36.345Z,15.20
2023-03-17T01:34:06.425Z,13.38
2023-03-17T01:36:34.436Z,14.15
2023-03-17T01:39:03.420Z,14.88
2023-03-17T01:41:34.053Z,14.40
2023-03-17T01:44:02.100Z,14.25
2023-03-17T01:46:30.080Z,15.25
2023-03-17T01:49:16.048Z,13.20
2023-03-17T01:52:09.134Z,14.32
2023-03-17T01:54:42.458Z,13.52
2023-03-17T01:57:23.393Z,14.27
2023-03-17T01:59:57.650Z,14.05
2023-03-17T02:02:31.687Z,14.40
2023-03-17T02:04:59.475Z,14.02
2023-03-17T02:07:27.602Z,14.15
2023-03-17T02:09:57.134Z,14.73
2023-03-17T02:12:27.854Z,14.85
2023-03-17T02:14:55.500Z,15.07
2023-03-17T02:17:25.335Z,14.07
2023-03-17T02:19:53.066Z,13.90
2023-03-17T02:22:24.658Z,15.18
2023-03-17T02:24:56.624Z,14.30
2023-03-17T02:27:46.465Z,14.32
2023-03-17T02:30:17.366Z,14.95
2023-03-17T02:32:45.672Z,13.80
2023-03-17T02:35:13.987Z,13.50
2023-03-17T02:37:46.691Z,15.23
2023-03-17T02:40:15.355Z,14.32
2023-03-17T02:42:43.369Z,14.95
2023-03-17T02:45:12.402Z,14.70
2023-03-17T02:47:41.523Z,14.88
2023-03-17T02:50:10.151Z,15.90
2023-03-17T02:52:37.996Z,15.05
2023-03-17T02:55:06.074Z,16.13
2023-03-17T02:57:34.327Z,15.60
2023-03-17T03:00:02.354Z,14.30
2023-03-17T03:02:30.210Z,14.60
2023-03-17T03:04:58.106Z,13.63
2023-03-17T03:07:26.404Z,15.50
2023-03-17T03:09:54.303Z,15.63
2023-03-17T03:12:22.147Z,15.32
2023-03-17T03:14:50.090Z,14.82
2023-03-17T03:17:18.251Z,15.95
2023-03-17T03:19:46.093Z,17.02
2023-03-17T03:22:13.916Z,15.48
2023-03-17T03:24:41.835Z,14.55
2023-03-17T03:27:09.656Z,15.00
2023-03-17T03:29:37.310Z,15.15
2023-03-17T03:32:05.483Z,14.77
2023-03-17T03:34:33.071Z,15.63
2023-03-17T03:37:00.564Z,15.27
2023-03-17T03:39:28.537Z,14.23
2023-03-17T03:41:59.254Z,15.82
2023-03-17T03:44:26.778Z,14.57
2023-03-17T03:46:54.326Z,13.88
2023-03-17T03:49:22.681Z,15.20
2023-03-17T03:51:50.359Z,13.93
2023-03-17T03:54:18.346Z,13.65
2023-03-17T03:56:46.141Z,13.18
2023-03-17T03:59:15.114Z,15.38
2023-03-17T04:01:42.663Z,15.55
2023-03-17T04:04:10.256Z,14.65
2023-03-17T04:06:38.182Z,14.50
2023-03-17T04:09:06.292Z,15.05
2023-03-17T04:11:34.112Z,14.30
2023-03-17T04:14:02.118Z,14.65
2023-03-17T04:16:29.952Z,16.88
2023-03-17T04:18:58.269Z,16.08
2023-03-17T04:21:26.486Z,14.43
2023-03-17T04:23:54.016Z,14.55
2023-03-17T04:26:23.131Z,13.32
2023-03-17T04:28:50.708Z,13.77
2023-03-17T04:31:18.381Z,14.00
2023-03-17T04:33:46.193Z,13.63
2023-03-17T04:36:22.210Z,12.30
2023-03-17T04:38:50.211Z,12.20
2023-03-17T04:41:18.378Z,14.43
2023-03-17T04:43:46.547Z,12.75
2023-03-17T04:46:14.718Z,12.35
2023-03-17T04:48:43.194Z,12.25
2023-03-17T04:51:11.852Z,12.18
2023-03-17T04:53:40.194Z,11.40
2023-03-17T04:56:08.116Z,11.52
2023-03-17T04:58:36.272Z,11.82
2023-03-17T05:01:04.386Z,12.18
2023-03-17T05:03:33.235Z,12.63
2023-03-17T05:06:02.157Z,12.63
2023-03-17T05:08:30.516Z,11.60
2023-03-17T05:10:58.466Z,11.40
2023-03-17T05:13:27.288Z,11.30
2023-03-17T05:15:55.828Z,12.23
2023-03-17T05:18:25.538Z,11.13
2023-03-17T05:20:53.702Z,10.88
2023-03-17T05:23:22.360Z,11.02
2023-03-17T05:25:50.300Z,11.38
2023-03-17T05:28:18.305Z,11.85
2023-03-17T05:30:46.300Z,11.25
2023-03-17T05:33:14.848Z,11.20
2023-03-17T05:35:43.351Z,10.32
2023-03-17T05:38:12.135Z,9.60
2023-03-17T05:40:40.069Z,10.65
2023-03-17T05:43:07.958Z,10.68
2023-03-17T05:45:36.070Z,11.95
2023-03-17T05:48:04.791Z,11.13
2023-03-17T05:50:32.965Z,11.07
2023-03-17T05:53:01.135Z,10.80
2023-03-17T05:55:29.045Z,11.00
2023-03-17T05:57:56.980Z,12.13
2023-03-17T06:00:24.843Z,11.00
2023-03-17T06:02:52.472Z,10.88
2023-03-17T06:05:20.073Z,11.48
2023-03-17T06:07:53.912Z,11.63
2023-03-17T06:10:24.376Z,11.68
2023-03-17T06:12:52.324Z,11.93
2023-03-17T06:15:20.560Z,12.18
2023-03-17T06:17:48.564Z,12.25
2023-03-17T06:20:16.422Z,12.43
2023-03-17T06:23:02.236Z,11.02
2023-03-17T06:25:30.979Z,11.60
2023-03-17T06:27:58.722Z,12.02
2023-03-17T06:30:29.411Z,12.80
2023-03-17T06:32:56.961Z,12.27
2023-03-17T06:35:25.386Z,10.73
2023-03-17T06:37:53.000Z,11.70
2023-03-17T06:40:20.720Z,11.52
2023-03-17T06:42:48.234Z,11.70
2023-03-17T06:45:16.362Z,12.00
2023-03-17T06:47:44.179Z,9.85
2023-03-17T06:50:12.334Z,11.80
2023-03-17T06:52:40.978Z,10.82
2023-03-17T06:55:08.977Z,10.27
2023-03-17T06:57:37.405Z,11.23
2023-03-17T07:00:06.691Z,10.90
2023-03-17T07:02:34.861Z,11.27
2023-03-17T07:05:03.847Z,11.60
2023-03-17T07:07:31.793Z,10.50
2023-03-17T07:09:59.560Z,11.45
2023-03-17T07:12:27.293Z,10.15
2023-03-17T07:14:55.199Z,9.68
2023-03-17T07:17:23.919Z,10.10
2023-03-17T07:19:52.444Z,9.68
2023-03-17T07:22:20.435Z,9.02
2023-03-17T07:24:49.251Z,9.23
2023-03-17T07:27:17.044Z,8.40
2023-03-17T07:29:45.064Z,8.93
2023-03-17T07:32:13.058Z,9.75
2023-03-17T07:34:40.808Z,7.72
2023-03-17T07:37:08.539Z,7.20
2023-03-17T07:39:36.368Z,7.18
2023-03-17T07:42:05.032Z,7.68
2023-03-17T07:44:33.312Z,6.97
2023-03-17T07:47:01.023Z,6.38
2023-03-17T07:49:40.762Z,7.05
2023-03-17T07:52:10.571Z,7.25
2023-03-17T07:54:42.241Z,7.85
2023-03-17T07:57:10.924Z,6.75
2023-03-17T07:59:40.008Z,6.60
2023-03-17T08:02:08.447Z,6.30
2023-03-17T08:04:36.437Z,5.88
2023-03-17T08:07:06.315Z,6.35
2023-03-17T08:09:34.019Z,5.13
2023-03-17T08:12:01.972Z,6.47
2023-03-17T08:14:29.885Z,5.43
2023-03-17T08:16:57.891Z,4.85
2023-03-17T08:19:25.379Z,5.32
2023-03-17T08:21:52.985Z,5.43
2023-03-17T08:24:20.974Z,4.70
2023-03-17T08:26:49.416Z,4.38
2023-03-17T08:29:17.013Z,4.60
2023-03-17T08:31:46.618Z,4.80
2023-03-17T08:34:14.494Z,4.85
2023-03-17T08:36:42.791Z,4.30
2023-03-17T08:39:10.659Z,5.50
2023-03-17T08:41:38.866Z,5.05
2023-03-17T08:44:08.779Z,5.38
2023-03-17T08:46:36.709Z,4.75
2023-03-17T08:49:04.511Z,5.05
2023-03-17T08:51:34.855Z,3.38
2023-03-17T08:54:03.399Z,3.13
2023-03-17T08:56:31.334Z,3.55
2023-03-17T08:58:59.328Z,3.75
2023-03-17T09:01:27.641Z,3.10
2023-03-17T09:03:56.141Z,3.45
2023-03-17T09:06:24.324Z,4.68
2023-03-17T09:08:55.601Z,3.42
2023-03-17T09:11:28.936Z,3.33
2023-03-17T09:13:56.931Z,3.80
2023-03-17T09:16:25.365Z,4.07
2023-03-17T09:18:53.489Z,3.42
2023-03-17T09:21:21.386Z,3.55
2023-03-17T09:23:49.495Z,2.92
2023-03-17T09:26:17.472Z,4.20
2023-03-17T09:28:45.441Z,5.03
2023-03-17T09:31:13.355Z,3.40
2023-03-17T09:33:41.683Z,3.55
2023-03-17T09:36:10.707Z,3.53
2023-03-17T09:38:39.189Z,3.35
2023-03-17T09:41:24.903Z,3.63
2023-03-17T09:44:07.772Z,3.42
2023-03-17T09:46:47.622Z,3.70
2023-03-17T09:49:15.604Z,3.28
2023-03-17T09:51:46.408Z,3.50
2023-03-17T09:54:18.421Z,3.40
2023-03-17T09:56:50.838Z,3.42
2023-03-17T09:59:34.131Z,3.58
2023-03-17T10:02:02.328Z,3.60
2023-03-17T10:04:30.262Z,3.78
2023-03-17T10:07:02.657Z,3.70
2023-03-17T10:09:30.651Z,2.90
2023-03-17T10:12:16.716Z,3.22
2023-03-17T10:14:44.645Z,2.70
2023-03-17T10:17:16.439Z,2.63
2023-03-17T10:20:01.372Z,3.40
2023-03-17T10:22:30.316Z,2.90
2023-03-17T10:25:03.969Z,3.65
2023-03-17T10:27:36.596Z,3.13
2023-03-17T10:30:11.782Z,4.25
2023-03-17T10:32:41.049Z,3.65
2023-03-17T10:35:10.769Z,3.35
2023-03-17T10:37:38.536Z,3.00
2023-03-17T10:40:10.487Z,3.10
2023-03-17T10:43:00.374Z,2.88
2023-03-17T10:45:33.739Z,2.83
2023-03-17T10:48:04.413Z,3.15
2023-03-17T10:50:38.252Z,3.10
2023-03-17T10:53:09.389Z,3.63
2023-03-17T10:55:49.860Z,2.83
2023-03-17T10:58:33.838Z,2.40
2023-03-17T11:01:17.577Z,3.03
2023-03-17T11:03:45.244Z,3.42
2023-03-17T11:06:17.013Z,2.72
2023-03-17T11:08:50.164Z,3.22
2023-03-17T11:11:34.700Z,4.40
2023-03-17T11:14:11.759Z,2.88
2023-03-17T11:16:53.399Z,3.08
2023-03-17T11:24:41.484Z,3.42
2023-03-17T11:27:17.251Z,2.88
2023-03-17T11:30:03.499Z,2.92
2023-03-17T11:32:49.356Z,2.83
2023-03-17T11:35:24.435Z,2.85
2023-03-17T11:38:16.795Z,4.22
2023-03-17T11:40:51.572Z,3.05
2023-03-17T11:43:26.255Z,3.80
2023-03-17T11:45:59.880Z,2.78
2023-03-17T11:48:40.732Z,2.65
2023-03-17T11:51:16.562Z,2.67
2023-03-17T11:53:59.180Z,2.63
2023-03-17T11:56:41.715Z,3.30
2023-03-17T11:59:16.487Z,2.88
2023-03-17T12:02:25.367Z,2.53
2023-03-17T12:05:05.064Z,2.53
2023-03-17T12:07:42.110Z,3.55
2023-03-17T12:10:22.758Z,2.75
2023-03-17T12:12:56.475Z,2.70
2023-03-17T12:15:51.147Z,3.05
2023-03-17T12:18:27.761Z,3.55
2023-03-17T12:21:01.744Z,3.45
2023-03-17T12:23:48.168Z,3.78
2023-03-17T12:26:20.271Z,3.85
2023-03-17T12:28:51.137Z,3.03
2023-03-17T12:31:44.321Z,3.53
2023-03-17T12:34:46.019Z,2.63
2023-03-17T12:37:16.043Z,2.85
2023-03-17T12:40:09.863Z,3.85
2023-03-17T12:42:38.391Z,2.53
2023-03-17T12:45:49.306Z,3.30
2023-03-17T12:49:05.973Z,3.47
2023-03-17T12:51:38.440Z,2.55
2023-03-17T12:54:15.476Z,3.13
2023-03-17T12:56:47.325Z,2.75
2023-03-17T12:59:26.340Z,3.30
2023-03-17T13:02:06.257Z,2.72
2023-03-17T13:04:36.633Z,2.42
2023-03-17T13:07:09.907Z,2.83
2023-03-17T13:09:56.113Z,2.05
2023-03-17T13:12:44.663Z,2.63
2023-03-17T13:15:47.395Z,1.63
2023-03-17T13:18:17.700Z,2.78
2023-03-17T13:20:53.166Z,2.58
2023-03-17T13:23:32.821Z,2.85
2023-03-17T13:26:00.472Z,2.88
2023-03-17T13:28:43.746Z,2.30
2023-03-17T13:31:16.509Z,2.58
2023-03-17T13:33:53.679Z,2.55
2023-03-17T13:36:50.977Z,2.30
2023-03-17T13:39:29.435Z,2.70
2023-03-17T13:42:11.948Z,2.13
2023-03-17T13:44:45.433Z,2.60
2023-03-17T13:47:42.417Z,2.35
2023-03-17T13:50:13.400Z,2.38
2023-03-17T13:52:53.314Z,2.53
2023-03-17T13:55:21.462Z,2.33
2023-03-17T13:58:09.736Z,2.72
2023-03-17T14:00:50.752Z,2.22
2023-03-17T14:03:29.890Z,2.30
2023-03-17T14:05:58.829Z,2.22
2023-03-17T14:08:34.140Z,2.58
2023-03-17T14:11:23.963Z,2.25
2023-03-17T14:14:29.619Z,1.55
2023-03-17T14:17:26.094Z,2.28
2023-03-17T14:20:19.253Z,2.30
2023-03-17T14:22:53.472Z,2.90
2023-03-17T14:25:24.095Z,2.15
2023-03-17T14:27:54.384Z,2.40
2023-03-17T14:30:31.614Z,2.85
2023-03-17T14:33:07.071Z,2.28
2023-03-17T14:35:44.936Z,2.95
2023-03-17T14:38:20.583Z,2.58
2023-03-17T14:40:49.304Z,3.05
2023-03-17T14:43:17.274Z,2.20
2023-03-17T14:45:49.963Z,2.90
2023-03-17T14:48:25.995Z,2.78
2023-03-17T14:50:56.230Z,3.97
2023-03-17T14:53:24.833Z,3.25
2023-03-17T14:55:53.617Z,3.85
2023-03-17T14:58:23.875Z,4.25
2023-03-17T15:00:58.323Z,3.85
2023-03-17T15:03:31.573Z,3.03
2023-03-17T15:06:07.844Z,3.55
2023-03-17T15:08:41.360Z,2.80
2023-03-17T15:11:19.829Z,3.22
2023-03-17T15:13:48.772Z,2.35
2023-03-17T15:16:23.323Z,2.88
2023-03-17T15:19:15.696Z,2.53
2023-03-17T15:21:43.396Z,2.40
2023-03-17T15:24:25.761Z,2.03
2023-03-17T15:27:14.250Z,2.10
2023-03-17T15:29:42.265Z,2.25
2023-03-17T15:32:15.976Z,1.58
2023-03-17T15:34:44.046Z,1.77
2023-03-17T15:37:23.685Z,1.20
2023-03-17T15:39:53.033Z,1.35
2023-03-17T15:42:23.319Z,1.00
2023-03-17T15:44:52.037Z,1.20
2023-03-17T15:47:26.606Z,1.30
2023-03-17T15:49:59.138Z,1.60
2023-03-17T15:52:28.025Z,1.27
2023-03-17T15:54:57.899Z,1.33
2023-03-17T15:57:27.313Z,1.98
2023-03-17T15:59:54.886Z,1.63
2023-03-17T16:02:30.590Z,1.60
2023-03-17T16:05:05.060Z,1.80
2023-03-17T16:07:33.318Z,1.58
2023-03-17T16:10:01.184Z,2.17
2023-03-17T16:12:29.322Z,1.88
2023-03-17T16:14:56.752Z,1.88
2023-03-17T16:17:28.984Z,1.85
2023-03-17T16:19:57.979Z,2.17
2023-03-17T16:22:36.277Z,1.80
2023-03-17T16:25:13.609Z,2.70
2023-03-17T16:27:41.592Z,2.40
2023-03-17T16:30:15.396Z,2.00
2023-03-17T16:32:43.328Z,2.15
2023-03-17T16:35:18.189Z,2.17
2023-03-17T16:37:46.367Z,2.22
2023-03-17T16:40:27.812Z,2.10
2023-03-17T16:42:55.887Z,2.00
2023-03-17T16:45:29.418Z,2.47
2023-03-17T16:47:58.032Z,2.63
2023-03-17T16:50:26.949Z,2.15
2023-03-17T16:52:55.329Z,3.05
2023-03-17T16:55:24.118Z,2.90
2023-03-17T16:57:53.920Z,2.00
2023-03-17T17:00:23.336Z,2.13
2023-03-17T17:02:52.263Z,2.47
2023-03-17T17:05:22.470Z,2.05
2023-03-17T17:07:51.303Z,2.70
2023-03-17T17:10:20.827Z,2.05
2023-03-17T17:12:49.864Z,2.38
2023-03-17T17:15:19.143Z,2.10
2023-03-17T17:17:53.926Z,2.40
2023-03-17T17:20:21.898Z,3.05
2023-03-17T17:22:49.854Z,2.60
2023-03-17T17:25:18.457Z,2.30
2023-03-17T17:27:47.123Z,2.30
2023-03-17T17:30:17.131Z,2.38
2023-03-17T17:32:45.829Z,2.83
2023-03-17T17:35:14.070Z,1.95
2023-03-17T17:37:41.778Z,1.63
2023-03-17T17:40:13.923Z,1.83
2023-03-17T17:42:41.925Z,1.90
2023-03-17T17:45:10.306Z,1.40
2023-03-17T17:47:38.167Z,1.70
2023-03-17T17:50:07.014Z,1.48
2023-03-17T17:52:35.318Z,1.63
2023-03-17T17:55:03.479Z,1.77
2023-03-17T17:57:31.121Z,1.50
2023-03-17T18:00:00.380Z,1.40
2023-03-17T18:02:28.295Z,1.63
2023-03-17T18:04:56.244Z,1.80
2023-03-17T18:07:24.138Z,1.38
2023-03-17T18:09:51.960Z,1.50
2023-03-17T18:12:19.836Z,2.08
2023-03-17T18:14:47.657Z,1.75
2023-03-17T18:17:21.562Z,2.55
2023-03-17T18:19:50.473Z,1.77
2023-03-17T18:22:18.050Z,3.08
2023-03-17T18:24:46.526Z,2.15
2023-03-17T18:27:14.436Z,2.50
2023-03-17T18:29:43.429Z,2.80
2023-03-17T18:32:12.422Z,2.35
2023-03-17T18:34:43.965Z,2.55
2023-03-17T18:39:41.904Z,3.80
2023-03-17T18:42:09.880Z,2.92
2023-03-17T18:44:37.910Z,3.92
2023-03-17T18:47:07.485Z,3.47
2023-03-17T18:49:35.188Z,3.75
2023-03-17T18:52:03.031Z,4.53
2023-03-17T18:54:31.672Z,3.95
2023-03-17T18:56:59.626Z,3.78
2023-03-17T18:59:27.288Z,3.92
2023-03-17T19:01:55.036Z,4.80
2023-03-17T19:04:22.596Z,5.70
2023-03-17T19:06:50.418Z,5.82
2023-03-17T19:09:18.583Z,6.13
2023-03-17T19:11:46.186Z,5.82
2023-03-17T19:14:14.134Z,5.95
2023-03-17T19:16:41.834Z,4.93
2023-03-17T19:19:09.394Z,4.63
2023-03-17T19:21:37.444Z,3.83
2023-03-17T19:24:05.200Z,3.90
2023-03-17T19:26:33.675Z,3.70
2023-03-17T19:29:01.557Z,3.67
2023-03-17T19:31:29.209Z,3.85
2023-03-17T19:33:56.854Z,4.97
2023-03-17T19:36:24.726Z,4.55
2023-03-17T19:38:52.311Z,5.20
2023-03-17T19:41:20.241Z,5.93
2023-03-17T19:43:47.650Z,7.90
2023-03-17T19:46:16.187Z,5.80
2023-03-17T19:48:43.857Z,5.45
2023-03-17T19:51:11.551Z,5.35
2023-03-17T19:53:39.162Z,4.43
2023-03-17T19:56:07.271Z,5.90
2023-03-17T19:58:35.071Z,5.82
2023-03-17T20:01:04.146Z,6.55
2023-03-17T20:03:31.830Z,5.22
2023-03-17T20:06:02.280Z,5.70
2023-03-17T20:08:29.858Z,5.28
2023-03-17T20:10:58.114Z,4.93
2023-03-17T20:13:25.742Z,6.20
2023-03-17T20:15:53.590Z,6.55
2023-03-17T20:18:23.051Z,5.68
2023-03-17T20:20:53.297Z,6.28
2023-03-17T20:23:21.717Z,5.82
2023-03-17T20:25:50.279Z,5.53
2023-03-17T20:28:18.676Z,5.97
2023-03-17T20:30:47.153Z,5.75
2023-03-17T20:33:15.110Z,5.78
2023-03-17T20:35:46.786Z,4.78
2023-03-17T20:38:15.013Z,6.40
2023-03-17T20:40:42.645Z,6.22
2023-03-17T20:43:10.832Z,6.18
2023-03-17T20:45:38.590Z,6.85
2023-03-17T20:48:09.339Z,5.30
2023-03-17T20:50:41.717Z,5.53
2023-03-17T20:53:09.317Z,5.97
2023-03-17T20:55:37.543Z,5.18
2023-03-17T20:58:05.271Z,5.55
2023-03-17T21:00:33.451Z,5.38
2023-03-17T21:03:01.551Z,5.50
2023-03-17T21:05:29.563Z,5.85
2023-03-17T21:07:57.651Z,6.03
2023-03-17T21:10:25.462Z,4.60
2023-03-17T21:12:53.296Z,9.10
2023-03-17T21:15:22.909Z,5.70
2023-03-17T21:17:50.602Z,5.30
2023-03-17T21:20:18.429Z,5.60
2023-03-17T21:22:46.093Z,4.93
2023-03-17T21:25:14.845Z,5.00
2023-03-17T21:27:43.230Z,5.70
2023-03-17T21:30:14.258Z,4.85
2023-03-17T21:32:42.282Z,4.22
2023-03-17T21:35:10.640Z,4.30
2023-03-17T21:37:38.360Z,4.40
2023-03-17T21:40:06.976Z,5.05
2023-03-17T21:42:34.973Z,4.65
2023-03-17T21:45:02.628Z,4.70
2023-03-17T21:47:30.239Z,5.28
2023-03-17T21:49:58.079Z,4.68
2023-03-17T21:52:26.054Z,5.55
2023-03-17T21:54:53.686Z,4.45
2023-03-17T21:57:21.634Z,5.07
2023-03-17T21:59:49.540Z,5.40
2023-03-17T22:02:17.757Z,4.05
2023-03-17T22:04:46.953Z,5.63
2023-03-17T22:07:16.565Z,4.68
2023-03-17T22:09:44.404Z,4.80
2023-03-17T22:12:12.204Z,4.35
2023-03-17T22:14:39.836Z,4.72
2023-03-17T22:17:08.313Z,4.82
2023-03-17T22:19:36.286Z,4.57
2023-03-17T22:22:04.049Z,4.63
2023-03-17T22:24:32.497Z,5.85
2023-03-17T22:27:00.182Z,4.97
2023-03-17T22:29:27.773Z,5.72
2023-03-17T22:31:55.695Z,5.25
2023-03-17T22:34:23.494Z,4.60
2023-03-17T22:36:51.405Z,5.00
2023-03-17T22:39:18.988Z,4.90
2023-03-17T22:41:46.613Z,5.35
2023-03-17T22:44:14.237Z,5.43
2023-03-17T22:46:41.919Z,4.78
2023-03-17T22:49:09.738Z,5.22
2023-03-17T22:51:38.066Z,5.05
2023-03-17T22:54:05.666Z,5.28
2023-03-17T22:56:33.338Z,5.38
2023-03-17T22:59:00.977Z,5.22
2023-03-17T23:01:28.610Z,5.30
2023-03-17T23:03:57.021Z,6.60
2023-03-17T23:06:25.117Z,4.88
2023-03-17T23:08:52.761Z,5.30
2023-03-17T23:11:22.266Z,5.85
2023-03-17T23:13:51.384Z,5.75
2023-03-17T23:16:20.358Z,5.68
2023-03-17T23:18:47.961Z,5.18
2023-03-17T23:21:26.635Z,6.78
2023-03-17T23:23:54.220Z,5.47
2023-03-17T23:26:21.988Z,6.28
2023-03-17T23:28:49.981Z,5.43
2023-03-17T23:31:19.375Z,7.35
2023-03-17T23:33:48.204Z,6.22
2023-03-17T23:36:17.158Z,7.80
2023-03-17T23:38:45.991Z,6.63
2023-03-17T23:41:14.563Z,7.70
2023-03-17T23:43:42.668Z,7.28
2023-03-17T23:46:10.487Z,8.48
2023-03-17T23:48:38.104Z,6.95
2023-03-17T23:51:06.247Z,6.60
2023-03-17T23:53:33.963Z,7.78
2023-03-17T23:56:01.547Z,7.20
2023-03-17T23:58:29.214Z,7.00
